Time;durP1;ratioP1;P1;durP2;ratioP2;P2;SDS_P1;SDS_P2;PMS_P1;PMS_P2;Temp;Humidity;BMP_temperature;BMP_pressure;BME280_temperature;BME280_humidity;BME280_pressure;Samples;Min_cycle;Max_cycle;Signal;HPM_P1;HPM_P2
2022/01/30 21:18:42;;;;;;;1.35;0.60;;;;;;;1.54;71.10;98574.08;1748010;81;21009;-66
2022/01/30 21:21:08;;;;;;;3.55;0.80;;;;;;;1.51;69.85;98610.19;1747003;81;20961;-66
2022/01/30 21:23:35;;;;;;;3.27;0.78;;;;;;;1.48;69.42;98614.09;1757394;80;20966;-65
2022/01/30 21:26:02;;;;;;;3.77;0.83;;;;;;;1.43;68.37;98597.11;1747958;81;22357;-65
2022/01/30 21:28:30;;;;;;;0.60;0.30;;;;;;;1.41;67.80;98598.45;1753385;80;21079;-66
2022/01/30 21:31:26;;;;;;;3.00;0.95;;;;;;;1.34;66.76;98590.50;1764361;80;21064;-65
2022/01/30 21:34:15;;;;;;;1.47;0.57;;;;;;;1.28;67.52;98622.37;1738495;80;21017;-66
2022/01/30 21:36:47;;;;;;;2.27;0.70;;;;;;;1.17;66.94;98626.96;1755544;79;21647;-65
2022/01/30 21:39:14;;;;;;;1.57;0.50;;;;;;;1.08;67.54;98607.48;1751495;80;21316;-65
2022/01/30 21:41:41;;;;;;;2.08;0.42;;;;;;;0.98;67.70;98603.49;1768047;80;21517;-65
2022/01/30 21:44:08;;;;;;;3.27;0.93;;;;;;;0.93;67.76;98618.19;1759582;80;21037;-65
2022/01/30 21:46:35;;;;;;;;;;;;;;;0.87;67.65;98608.07;1755821;80;21396;-65
2022/01/30 21:49:07;;;;;;;1.20;0.57;;;;;;;0.85;67.48;98620.11;1749090;80;20194;-65
2022/01/30 21:51:34;;;;;;;2.47;0.70;;;;;;;0.82;67.72;98618.91;1750378;80;22283;-65
2022/01/30 21:54:01;;;;;;;1.35;0.62;;;;;;;0.78;68.00;98629.67;1750882;80;21129;-65
2022/01/30 21:56:27;;;;;;;4.33;1.10;;;;;;;0.76;67.51;98631.47;1755659;79;21054;-65
2022/01/30 21:58:54;;;;;;;4.03;1.10;;;;;;;0.75;67.86;98634.06;1754556;80;20999;-66
2022/01/30 22:01:21;;;;;;;1.80;1.07;;;;;;;0.74;68.22;98623.39;1761018;80;21600;-66
2022/01/30 22:03:48;;;;;;;4.37;1.45;;;;;;;0.71;68.27;98624.75;1754204;80;22284;-65
2022/01/30 22:06:15;;;;;;;3.87;0.80;;;;;;;0.70;68.53;98626.90;1760459;80;21070;-66
2022/01/30 22:08:42;;;;;;;2.22;0.62;;;;;;;0.71;68.60;98631.17;1752055;81;21098;-65
2022/01/30 22:11:09;;;;;;;2.08;0.88;;;;;;;0.70;68.40;98617.91;1740380;80;21101;-66
2022/01/30 22:13:40;;;;;;;1.67;0.70;;;;;;;0.72;68.45;98629.84;1752753;79;20965;-65
2022/01/30 22:16:09;;;;;;;1.25;0.70;;;;;;;0.74;68.58;98627.24;1762192;79;21673;-66
2022/01/30 22:18:35;;;;;;;2.35;0.70;;;;;;;0.74;68.22;98632.38;1747391;79;20930;-65
2022/01/30 22:21:02;;;;;;;1.75;0.70;;;;;;;0.74;68.20;98632.38;1746013;79;20980;-66
2022/01/30 22:23:29;;;;;;;3.63;0.77;;;;;;;0.78;68.17;98618.56;1751519;81;21047;-66
2022/01/30 22:25:56;;;;;;;3.08;0.85;;;;;;;0.77;67.76;98622.02;1761503;81;20985;-66
2022/01/30 22:28:22;;;;;;;2.37;0.70;;;;;;;0.77;68.38;98625.43;1736990;81;21610;-65
2022/01/30 22:30:49;;;;;;;2.33;0.53;;;;;;;0.72;68.45;98624.70;1722824;81;20983;-65
2022/01/30 22:33:16;;;;;;;2.55;0.68;;;;;;;0.72;67.70;98634.14;1734192;81;21043;-66
2022/01/30 22:35:43;;;;;;;4.15;0.93;;;;;;;0.73;67.73;98631.95;1744753;81;21043;-65
2022/01/30 22:38:09;;;;;;;4.50;1.02;;;;;;;0.71;67.94;98629.89;1759980;81;21115;-65
2022/01/30 22:40:36;;;;;;;1.32;0.70;;;;;;;0.73;68.21;98628.97;1747892;80;21570;-65
2022/01/30 22:43:05;;;;;;;4.70;0.85;;;;;;;0.73;68.06;98628.10;1758864;81;21122;-66
2022/01/30 22:45:32;;;;;;;1.92;0.80;;;;;;;0.71;68.39;98623.02;1753133;81;21170;-65
2022/01/30 22:48:01;;;;;;;2.92;1.00;;;;;;;0.72;68.26;98635.42;1761388;79;21648;-65
2022/01/30 22:50:28;;;;;;;1.75;0.70;;;;;;;0.72;68.50;98632.41;1762575;80;21124;-66
2022/01/30 22:52:54;;;;;;;3.77;0.78;;;;;;;0.71;68.65;98629.89;1760107;79;21639;-65
2022/01/30 22:55:21;;;;;;;2.10;0.70;;;;;;;0.70;68.73;98628.19;1733262;81;20988;-65
2022/01/30 22:57:48;;;;;;;4.27;0.80;;;;;;;0.68;68.70;98626.11;1720807;81;21031;-66
2022/01/30 23:00:28;;;;;;;2.70;1.00;;;;;;;0.68;69.00;98635.11;1728968;81;22279;-65
2022/01/30 23:02:56;;;;;;;3.12;0.95;;;;;;;0.71;69.12;98635.03;1731929;81;21117;-65
2022/01/30 23:05:28;;;;;;;1.67;0.80;;;;;;;0.72;69.25;98630.28;1729634;81;21430;-65
2022/01/30 23:07:55;;;;;;;2.37;0.90;;;;;;;0.71;69.34;98629.89;1735491;81;21040;-66
2022/01/30 23:10:25;;;;;;;2.95;1.10;;;;;;;0.71;69.58;98633.75;1731183;81;21729;-66
2022/01/30 23:12:52;;;;;;;5.55;0.90;;;;;;;0.71;69.67;98622.19;1752058;80;21681;-66
2022/01/30 23:15:19;;;;;;;5.65;1.37;;;;;;;0.72;70.05;98623.86;1749387;79;21104;-66
2022/01/30 23:17:46;;;;;;;4.58;1.25;;;;;;;0.74;70.05;98618.25;1731555;81;21445;-66
2022/01/30 23:20:14;;;;;;;2.07;1.03;;;;;;;0.74;70.28;98619.53;1719182;81;20977;-65
2022/01/30 23:22:42;;;;;;;5.28;1.05;;;;;;;0.73;70.95;98622.97;1716720;80;21132;-65
2022/01/30 23:25:13;;;;;;;3.95;1.05;;;;;;;0.74;70.65;98607.97;1750408;81;21084;-65
2022/01/30 23:27:43;;;;;;;4.42;1.05;;;;;;;0.75;70.61;98605.80;1733694;80;21076;-65
2022/01/30 23:30:14;;;;;;;5.25;0.98;;;;;;;0.76;70.81;98599.80;1760327;81;21541;-65
2022/01/30 23:32:41;;;;;;;3.08;1.10;;;;;;;0.77;70.92;98604.04;1731979;81;21661;-65
2022/01/30 23:35:08;;;;;;;3.03;0.83;;;;;;;0.78;71.12;98595.44;1716405;81;21007;-66
2022/01/30 23:37:34;;;;;;;2.80;0.90;;;;;;;0.81;70.82;98591.50;1755808;81;21328;-65
2022/01/30 23:40:01;;;;;;;2.75;0.82;;;;;;;0.81;70.76;98585.08;1729060;82;21075;-65
2022/01/30 23:42:35;;;;;;;5.97;0.77;;;;;;;0.85;70.53;98584.13;1721065;82;21501;-65
2022/01/30 23:45:01;;;;;;;1.98;0.70;;;;;;;0.88;70.27;98593.04;1721011;81;21685;-65
2022/01/30 23:47:28;;;;;;;0.93;0.70;;;;;;;0.91;69.85;98586.53;1723138;81;21077;-65
2022/01/30 23:49:55;;;;;;;9.48;1.00;;;;;;;0.93;70.14;98595.05;1718427;82;21081;-65
2022/01/30 23:52:22;;;;;;;6.35;0.90;;;;;;;0.92;70.19;98590.78;1731535;81;21167;-65
2022/01/30 23:54:50;;;;;;;3.90;1.00;;;;;;;0.92;69.73;98595.08;1718396;81;21132;-66
2022/01/30 23:57:17;;;;;;;1.60;0.50;;;;;;;0.91;70.10;98580.11;1719704;81;21101;-66
2022/01/30 23:59:44;;;;;;;2.80;0.93;;;;;;;0.89;69.88;98590.86;1741240;81;21893;-65
